Time;durP1;ratioP1;P1;durP2;ratioP2;P2;SDS_P1;SDS_P2;PMS_P1;PMS_P2;Temp;Humidity;BMP_temperature;BMP_pressure;BME280_temperature;BME280_humidity;BME280_pressure;Samples;Min_cycle;Max_cycle;Signal;HPM_P1;HPM_P2
2021/04/28 00:00:55;;;;;;;11.48;5.93;;;;;;;;;;4977126;28;20278;-83
2021/04/28 00:03:20;;;;;;;16.17;6.88;;;;;;;;;;4975871;28;20042;-82
2021/04/28 00:05:46;;;;;;;10.52;6.85;;;;;;;;;;4983000;28;20389;-81
2021/04/28 00:08:11;;;;;;;13.35;6.97;;;;;;;;;;4970246;28;20522;-83
2021/04/28 00:10:38;;;;;;;11.80;7.03;;;;;;;;;;4981079;28;20034;-83
2021/04/28 00:13:04;;;;;;;12.18;6.97;;;;;;;;;;4971502;28;20129;-82
2021/04/28 00:15:31;;;;;;;13.48;7.05;;;;;;;;;;4972208;28;20098;-82
2021/04/28 00:17:56;;;;;;;12.80;7.15;;;;;;;;;;4974329;28;20057;-82
2021/04/28 00:20:23;;;;;;;13.27;7.30;;;;;;;;;;4983536;28;20490;-83
2021/04/28 00:22:48;;;;;;;10.45;6.35;;;;;;;;;;4969077;28;20528;-83
2021/04/28 00:25:15;;;;;;;11.35;6.32;;;;;;;;;;4972330;28;20102;-83
2021/04/28 00:27:40;;;;;;;14.68;7.70;;;;;;;;;;4972651;28;20085;-82
2021/04/28 00:30:07;;;;;;;10.07;6.13;;;;;;;;;;4987195;28;20047;-84
2021/04/28 00:32:36;;;;;;;16.08;7.45;;;;;;;;;;5003615;28;20101;-84
2021/04/28 00:35:02;;;;;;;11.18;6.88;;;;;;;;;;4976311;28;20031;-82
2021/04/28 00:37:27;;;;;;;11.30;7.03;;;;;;;;;;4967779;28;20023;-81
2021/04/28 00:39:52;;;;;;;8.55;6.07;;;;;;;;;;4981014;28;20042;-81
2021/04/28 00:42:18;;;;;;;11.10;6.53;;;;;;;;;;4971177;28;20448;-81
2021/04/28 00:44:43;;;;;;;12.15;7.07;;;;;;;;;;4970602;28;20047;-84
2021/04/28 00:47:08;;;;;;;10.38;7.22;;;;;;;;;;4966628;28;20041;-84
2021/04/28 00:49:33;;;;;;;13.30;7.65;;;;;;;;;;4982721;28;20042;-80
2021/04/28 00:51:59;;;;;;;12.20;7.07;;;;;;;;;;5007337;28;20046;-82
2021/04/28 00:54:25;;;;;;;14.75;8.30;;;;;;;;;;4992480;28;20073;-82
2021/04/28 00:56:53;;;;;;;10.40;7.28;;;;;;;;;;4989465;28;20019;-82
2021/04/28 00:59:18;;;;;;;15.80;6.97;;;;;;;;;;4981809;28;20431;-81
2021/04/28 01:01:43;;;;;;;14.43;8.00;;;;;;;;;;4975077;28;20046;-82
2021/04/28 01:04:08;;;;;;;12.07;7.90;;;;;;;;;;4984670;28;20027;-85
2021/04/28 01:06:33;;;;;;;14.10;7.75;;;;;;;;;;4974626;28;20462;-82
2021/04/28 01:09:00;;;;;;;15.40;7.70;;;;;;;;;;4973906;28;20026;-81
2021/04/28 01:11:27;;;;;;;11.85;7.68;;;;;;;;;;4972370;28;20046;-82
2021/04/28 01:13:52;;;;;;;12.38;7.47;;;;;;;;;;4980202;28;20046;-83
2021/04/28 01:16:17;;;;;;;16.00;8.20;;;;;;;;;;4984008;28;20358;-82
2021/04/28 01:18:42;;;;;;;13.13;7.65;;;;;;;;;;4978790;28;20146;-82
2021/04/28 01:21:08;;;;;;;13.60;8.40;;;;;;;;;;4977222;28;20054;-82
2021/04/28 01:23:33;;;;;;;12.02;7.55;;;;;;;;;;4980601;28;20026;-82
2021/04/28 01:25:58;;;;;;;13.45;7.80;;;;;;;;;;4976048;28;20018;-82
2021/04/28 01:28:24;;;;;;;14.48;8.07;;;;;;;;;;4989462;28;20054;-81
2021/04/28 01:31:03;;;;;;;12.00;7.25;;;;;;;;;;4970534;28;20509;-80
2021/04/28 01:33:30;;;;;;;14.02;7.55;;;;;;;;;;4970948;28;20121;-82
2021/04/28 01:35:57;;;;;;;16.05;7.65;;;;;;;;;;4989005;28;20118;-82
2021/04/28 01:38:22;;;;;;;15.43;8.15;;;;;;;;;;4978640;28;20039;-82
2021/04/28 01:40:48;;;;;;;13.93;8.35;;;;;;;;;;4975335;28;20026;-80
2021/04/28 01:43:13;;;;;;;16.60;8.88;;;;;;;;;;4966034;28;20389;-82
2021/04/28 01:45:39;;;;;;;13.27;8.00;;;;;;;;;;4974221;28;20511;-81
2021/04/28 01:48:05;;;;;;;15.07;8.98;;;;;;;;;;4973351;28;20031;-82
2021/04/28 01:50:32;;;;;;;15.77;8.30;;;;;;;;;;4968341;28;20022;-83
2021/04/28 01:52:59;;;;;;;14.15;7.68;;;;;;;;;;4967370;28;20027;-82
2021/04/28 01:55:24;;;;;;;12.70;7.65;;;;;;;;;;4969917;28;20504;-81
2021/04/28 01:57:50;;;;;;;12.68;8.30;;;;;;;;;;4976328;28;20077;-82
2021/04/28 02:00:16;;;;;;;12.38;7.32;;;;;;;;;;4972236;28;20037;-82
2021/04/28 02:02:41;;;;;;;15.13;8.65;;;;;;;;;;4967839;28;20042;-82
2021/04/28 02:05:07;;;;;;;12.38;7.97;;;;;;;;;;4981697;28;20018;-82
2021/04/28 02:07:32;;;;;;;12.55;8.07;;;;;;;;;;4973167;28;20023;-82
2021/04/28 02:09:58;;;;;;;15.55;7.68;;;;;;;;;;4970265;28;20466;-82
2021/04/28 02:12:23;;;;;;;16.90;8.30;;;;;;;;;;4973662;28;20038;-82
2021/04/28 02:14:50;;;;;;;12.00;7.55;;;;;;;;;;4971509;28;20492;-83
2021/04/28 02:17:16;;;;;;;13.27;7.60;;;;;;;;;;4969725;28;20653;-82
2021/04/28 02:19:41;;;;;;;12.93;7.93;;;;;;;;;;4986714;28;20030;-83
2021/04/28 02:22:07;;;;;;;13.43;8.15;;;;;;;;;;4973132;28;20539;-83
2021/04/28 02:24:32;;;;;;;12.77;8.73;;;;;;;;;;4974534;28;20026;-83
2021/04/28 02:26:57;;;;;;;15.40;9.00;;;;;;;;;;4979621;28;20031;-82
2021/04/28 02:29:23;;;;;;;15.50;9.30;;;;;;;;;;4970830;28;20031;-83
2021/04/28 02:31:48;;;;;;;14.88;8.05;;;;;;;;;;4978902;28;20173;-83
2021/04/28 02:34:13;;;;;;;13.50;8.02;;;;;;;;;;4983999;28;20049;-83
2021/04/28 02:36:41;;;;;;;15.15;9.18;;;;;;;;;;4973956;28;20445;-81
2021/04/28 02:39:10;;;;;;;13.25;8.38;;;;;;;;;;4974408;28;20023;-83
2021/04/28 02:41:40;;;;;;;15.90;8.52;;;;;;;;;;4996476;28;20022;-83
2021/04/28 02:44:06;;;;;;;15.38;8.70;;;;;;;;;;4990953;28;20491;-82
2021/04/28 02:46:32;;;;;;;15.68;8.52;;;;;;;;;;4977751;28;20063;-82
2021/04/28 02:48:58;;;;;;;13.18;7.85;;;;;;;;;;4974227;28;20035;-81
2021/04/28 02:51:23;;;;;;;16.10;9.18;;;;;;;;;;4975885;28;20097;-81
2021/04/28 02:53:48;;;;;;;13.50;8.88;;;;;;;;;;4971613;28;20023;-81
2021/04/28 02:56:14;;;;;;;14.77;9.00;;;;;;;;;;4974628;28;20125;-81
2021/04/28 02:58:39;;;;;;;16.23;8.52;;;;;;;;;;4971745;28;20027;-81
2021/04/28 03:01:10;;;;;;;13.98;7.57;;;;;;;;;;4975523;28;20062;-81
2021/04/28 03:03:38;;;;;;;13.98;7.35;;;;;;;;;;4981603;28;20085;-80
2021/04/28 03:06:03;;;;;;;14.77;8.98;;;;;;;;;;4972704;28;20110;-80
2021/04/28 03:08:28;;;;;;;13.77;9.13;;;;;;;;;;4977648;28;20536;-82
2021/04/28 03:10:54;;;;;;;15.35;9.27;;;;;;;;;;4982344;28;20054;-82
2021/04/28 03:13:19;;;;;;;12.27;7.95;;;;;;;;;;4983510;28;20473;-84
2021/04/28 03:15:45;;;;;;;15.77;9.48;;;;;;;;;;4973878;28;20023;-83
2021/04/28 03:18:13;;;;;;;14.10;7.65;;;;;;;;;;4975448;28;20035;-81
2021/04/28 03:20:40;;;;;;;13.02;8.15;;;;;;;;;;4975572;28;20034;-82
2021/04/28 03:23:07;;;;;;;17.25;8.80;;;;;;;;;;4977030;28;20054;-83
2021/04/28 03:25:32;;;;;;;13.30;8.60;;;;;;;;;;4977356;28;20034;-82
2021/04/28 03:27:57;;;;;;;17.73;8.13;;;;;;;;;;4973146;28;20599;-84
2021/04/28 03:30:23;;;;;;;12.95;8.40;;;;;;;;;;4970970;28;20579;-81
2021/04/28 03:32:48;;;;;;;15.32;8.68;;;;;;;;;;4970665;28;20041;-80
2021/04/28 03:35:13;;;;;;;15.98;8.93;;;;;;;;;;4979772;28;20027;-81
2021/04/28 03:37:38;;;;;;;13.02;8.70;;;;;;;;;;4974426;28;20035;-82
2021/04/28 03:40:07;;;;;;;14.70;8.52;;;;;;;;;;4971668;28;20026;-82
2021/04/28 03:42:32;;;;;;;14.13;8.68;;;;;;;;;;4971426;28;20030;-81
2021/04/28 03:44:58;;;;;;;13.85;8.55;;;;;;;;;;4972586;28;20058;-82
2021/04/28 03:47:25;;;;;;;14.80;8.95;;;;;;;;;;4996115;28;20037;-83
2021/04/28 03:49:50;;;;;;;15.05;8.80;;;;;;;;;;4994559;28;20026;-83
2021/04/28 03:52:15;;;;;;;14.50;8.40;;;;;;;;;;4974968;28;20041;-82
2021/04/28 03:54:40;;;;;;;15.10;8.73;;;;;;;;;;4972394;28;20089;-80
2021/04/28 03:57:06;;;;;;;14.32;9.13;;;;;;;;;;4973922;28;20038;-83
2021/04/28 03:59:31;;;;;;;14.05;8.90;;;;;;;;;;4974670;28;20389;-82
2021/04/28 04:01:56;;;;;;;14.23;9.40;;;;;;;;;;4977133;28;20026;-83
2021/04/28 04:04:22;;;;;;;14.02;8.43;;;;;;;;;;4972383;28;20022;-83
2021/04/28 04:06:47;;;;;;;19.38;10.18;;;;;;;;;;4973066;28;20031;-83
2021/04/28 04:09:12;;;;;;;13.88;9.05;;;;;;;;;;4970910;28;20023;-82
2021/04/28 04:11:37;;;;;;;15.50;9.00;;;;;;;;;;4971011;28;20548;-83
2021/04/28 04:14:04;;;;;;;17.05;9.63;;;;;;;;;;4977060;28;20041;-82
2021/04/28 04:16:30;;;;;;;16.25;10.18;;;;;;;;;;4969301;28;20031;-82
2021/04/28 04:18:55;;;;;;;15.57;8.90;;;;;;;;;;4971176;28;20113;-82
2021/04/28 04:21:20;;;;;;;15.13;8.85;;;;;;;;;;4973645;28;20187;-82
2021/04/28 04:23:45;;;;;;;16.42;9.85;;;;;;;;;;4969857;28;20022;-83
2021/04/28 04:26:10;;;;;;;19.42;9.30;;;;;;;;;;4976411;28;20026;-81
2021/04/28 04:28:36;;;;;;;16.98;9.32;;;;;;;;;;4976450;28;20077;-82
2021/04/28 04:31:01;;;;;;;16.63;10.40;;;;;;;;;;4971786;28;20031;-83
2021/04/28 04:33:26;;;;;;;15.77;9.23;;;;;;;;;;4979059;28;20066;-82
2021/04/28 04:35:52;;;;;;;15.40;9.25;;;;;;;;;;4977985;28;20467;-81
2021/04/28 04:38:18;;;;;;;17.20;9.38;;;;;;;;;;4983870;28;20382;-81
2021/04/28 04:40:43;;;;;;;18.95;10.27;;;;;;;;;;4972982;28;20027;-81
2021/04/28 04:43:09;;;;;;;17.75;10.00;;;;;;;;;;4992328;28;20013;-83
2021/04/28 04:45:34;;;;;;;15.32;9.70;;;;;;;;;;4993503;28;20055;-84
2021/04/28 04:48:00;;;;;;;17.33;10.30;;;;;;;;;;4984011;28;20042;-82
2021/04/28 04:50:26;;;;;;;17.17;10.20;;;;;;;;;;4978018;28;20442;-81
2021/04/28 04:52:51;;;;;;;16.00;10.07;;;;;;;;;;4987622;28;20027;-81
2021/04/28 04:55:16;;;;;;;17.08;11.10;;;;;;;;;;4997193;28;20026;-78
2021/04/28 04:57:43;;;;;;;16.67;11.40;;;;;;;;;;4975376;28;20026;-79
2021/04/28 05:00:08;;;;;;;16.63;10.57;;;;;;;;;;4981001;28;20106;-82
2021/04/28 05:02:33;;;;;;;19.42;11.27;;;;;;;;;;4974443;28;20018;-83
2021/04/28 05:04:58;;;;;;;20.23;11.02;;;;;;;;;;4978624;28;20018;-82
2021/04/28 05:07:23;;;;;;;19.88;10.48;;;;;;;;;;4976540;28;20053;-83
2021/04/28 05:09:51;;;;;;;15.90;9.23;;;;;;;;;;4986665;28;20034;-81
2021/04/28 05:12:16;;;;;;;16.17;9.55;;;;;;;;;;4978803;28;20039;-79
2021/04/28 05:14:41;;;;;;;14.52;10.00;;;;;;;;;;4971164;28;20157;-79
2021/04/28 05:17:06;;;;;;;13.65;9.07;;;;;;;;;;4975946;28;20019;-77
2021/04/28 05:19:31;;;;;;;18.52;9.85;;;;;;;;;;4975166;28;20463;-81
2021/04/28 05:21:57;;;;;;;13.55;9.20;;;;;;;;;;4970890;28;20039;-78
2021/04/28 05:24:22;;;;;;;12.73;8.85;;;;;;;;;;4981145;28;20034;-77
2021/04/28 05:26:47;;;;;;;12.52;8.68;;;;;;;;;;4971506;28;20042;-78
2021/04/28 05:29:12;;;;;;;11.18;7.82;;;;;;;;;;4973904;28;20019;-78
2021/04/28 05:31:37;;;;;;;13.75;8.95;;;;;;;;;;4974149;28;20038;-82
2021/04/28 05:34:03;;;;;;;12.15;7.93;;;;;;;;;;4969876;28;20027;-81
2021/04/28 05:36:28;;;;;;;14.45;8.27;;;;;;;;;;4976800;28;20041;-80
2021/04/28 05:38:58;;;;;;;12.20;8.30;;;;;;;;;;4970781;28;20070;-81
2021/04/28 05:41:23;;;;;;;13.93;8.98;;;;;;;;;;4980441;28;20069;-81
2021/04/28 05:43:48;;;;;;;13.23;8.05;;;;;;;;;;4974084;28;20035;-82
2021/04/28 05:46:14;;;;;;;14.90;7.85;;;;;;;;;;4978380;28;20042;-81
2021/04/28 05:48:40;;;;;;;12.75;8.98;;;;;;;;;;4981580;28;20026;-83
2021/04/28 05:51:05;;;;;;;11.60;8.30;;;;;;;;;;4971674;28;20015;-80
2021/04/28 05:53:30;;;;;;;13.05;8.15;;;;;;;;;;4975609;28;20082;-81
2021/04/28 05:55:55;;;;;;;17.88;9.10;;;;;;;;;;4970564;28;20391;-80
2021/04/28 05:58:21;;;;;;;13.32;9.48;;;;;;;;;;4972869;28;20030;-81
2021/04/28 06:00:46;;;;;;;14.25;8.45;;;;;;;;;;4983344;28;20105;-81
2021/04/28 06:03:11;;;;;;;14.10;8.93;;;;;;;;;;4973343;28;20100;-81
2021/04/28 06:05:36;;;;;;;17.02;8.18;;;;;;;;;;4976356;28;20027;-81
2021/04/28 06:08:02;;;;;;;16.35;9.30;;;;;;;;;;4982193;28;20030;-80
2021/04/28 06:10:27;;;;;;;12.55;9.60;;;;;;;;;;4974163;28;20039;-81
2021/04/28 06:12:52;;;;;;;12.60;8.38;;;;;;;;;;4981581;28;20053;-82
2021/04/28 06:15:18;;;;;;;13.98;9.48;;;;;;;;;;4980275;28;20025;-81
2021/04/28 06:17:44;;;;;;;16.08;9.20;;;;;;;;;;4983926;28;20397;-81
2021/04/28 06:20:13;;;;;;;19.63;9.98;;;;;;;;;;4981173;28;20022;-81
2021/04/28 06:22:38;;;;;;;17.60;9.73;;;;;;;;;;4971638;28;20504;-81
2021/04/28 06:25:04;;;;;;;16.58;9.80;;;;;;;;;;4985944;28;20033;-80
2021/04/28 06:27:29;;;;;;;15.50;9.73;;;;;;;;;;5001378;28;20018;-81
2021/04/28 06:29:54;;;;;;;18.33;10.45;;;;;;;;;;4975346;28;20019;-80
2021/04/28 06:32:20;;;;;;;18.55;10.23;;;;;;;;;;4972708;28;20085;-82
2021/04/28 06:34:46;;;;;;;14.65;10.13;;;;;;;;;;4972724;28;20043;-81
2021/04/28 06:37:12;;;;;;;15.68;10.10;;;;;;;;;;4975789;28;20033;-83
2021/04/28 06:39:37;;;;;;;15.68;9.50;;;;;;;;;;4974577;28;20117;-81
2021/04/28 06:42:02;;;;;;;16.13;9.20;;;;;;;;;;4972825;28;20433;-82
2021/04/28 06:44:28;;;;;;;21.70;9.63;;;;;;;;;;4975739;28;20053;-82
2021/04/28 06:46:53;;;;;;;14.02;9.50;;;;;;;;;;4974145;28;20474;-82
2021/04/28 06:49:18;;;;;;;16.90;9.40;;;;;;;;;;4979041;28;20118;-81
2021/04/28 06:51:43;;;;;;;21.48;10.45;;;;;;;;;;4972806;28;20379;-80
2021/04/28 06:54:08;;;;;;;17.50;10.63;;;;;;;;;;4975492;28;20577;-81
2021/04/28 06:56:34;;;;;;;18.13;9.65;;;;;;;;;;4972232;28;20019;-80
2021/04/28 06:58:59;;;;;;;21.67;10.10;;;;;;;;;;4975665;28;20018;-81
2021/04/28 07:01:24;;;;;;;17.55;9.20;;;;;;;;;;4975076;28;20445;-83
2021/04/28 07:03:49;;;;;;;17.52;9.75;;;;;;;;;;4988654;28;20034;-81
2021/04/28 07:06:15;;;;;;;16.85;9.10;;;;;;;;;;4990809;28;20010;-82
2021/04/28 07:08:40;;;;;;;16.15;9.63;;;;;;;;;;4978388;28;20030;-82
2021/04/28 07:11:06;;;;;;;25.85;9.82;;;;;;;;;;4969596;28;20022;-83
2021/04/28 07:13:31;;;;;;;15.70;10.00;;;;;;;;;;4978904;28;20049;-82
2021/04/28 07:15:56;;;;;;;17.63;9.65;;;;;;;;;;4978222;28;20034;-80
2021/04/28 07:18:22;;;;;;;14.80;10.50;;;;;;;;;;4981314;28;20022;-82
2021/04/28 07:20:48;;;;;;;17.40;10.13;;;;;;;;;;4990808;28;20093;-82
2021/04/28 07:23:13;;;;;;;15.57;8.77;;;;;;;;;;4978750;28;20022;-80
2021/04/28 07:25:39;;;;;;;13.40;8.90;;;;;;;;;;4979006;28;20023;-81
2021/04/28 07:28:04;;;;;;;13.18;9.75;;;;;;;;;;4980275;28;20039;-82
2021/04/28 07:30:30;;;;;;;21.02;9.88;;;;;;;;;;4980743;28;20022;-80
2021/04/28 07:32:56;;;;;;;15.57;9.57;;;;;;;;;;4983918;28;20022;-87
2021/04/28 07:35:21;;;;;;;19.25;9.55;;;;;;;;;;4988714;28;20038;-88
2021/04/28 07:37:47;;;;;;;20.90;9.82;;;;;;;;;;4996888;28;20378;-85
2021/04/28 07:40:13;;;;;;;22.45;10.10;;;;;;;;;;4991480;28;20429;-84
2021/04/28 07:42:38;;;;;;;16.90;9.80;;;;;;;;;;4977445;28;20693;-86
2021/04/28 07:45:04;;;;;;;16.20;9.95;;;;;;;;;;4987489;28;20122;-83
2021/04/28 07:47:29;;;;;;;15.85;9.75;;;;;;;;;;4975554;28;20130;-85
2021/04/28 07:49:55;;;;;;;16.20;9.60;;;;;;;;;;4992452;28;20062;-85
2021/04/28 07:52:20;;;;;;;22.20;11.05;;;;;;;;;;4984167;28;20482;-84
2021/04/28 07:54:45;;;;;;;17.75;9.60;;;;;;;;;;4995978;28;20058;-85
2021/04/28 07:57:10;;;;;;;20.30;9.98;;;;;;;;;;4985114;28;20041;-83
2021/04/28 07:59:36;;;;;;;17.55;10.73;;;;;;;;;;4979848;28;20037;-83
2021/04/28 08:02:01;;;;;;;18.38;10.05;;;;;;;;;;4979003;28;20023;-83
2021/04/28 08:04:27;;;;;;;14.90;10.38;;;;;;;;;;4979099;28;20457;-80
2021/04/28 08:06:52;;;;;;;17.25;9.45;;;;;;;;;;4971353;28;20122;-81
2021/04/28 08:09:17;;;;;;;21.00;10.18;;;;;;;;;;4980104;28;20029;-80
2021/04/28 08:11:43;;;;;;;19.25;11.15;;;;;;;;;;4976195;28;20026;-79
2021/04/28 08:14:08;;;;;;;18.48;10.15;;;;;;;;;;4969269;28;20027;-80
2021/04/28 08:16:35;;;;;;;19.80;10.48;;;;;;;;;;4971867;28;20049;-84
2021/04/28 08:19:00;;;;;;;24.45;11.80;;;;;;;;;;4973884;28;20501;-85
2021/04/28 08:21:25;;;;;;;14.88;9.93;;;;;;;;;;4975165;28;20018;-84
2021/04/28 08:23:50;;;;;;;19.42;10.20;;;;;;;;;;4969930;28;20034;-85
2021/04/28 08:26:16;;;;;;;16.63;9.27;;;;;;;;;;4974048;28;20069;-84
2021/04/28 08:28:42;;;;;;;16.73;10.40;;;;;;;;;;4983180;28;20037;-83
2021/04/28 08:31:11;;;;;;;19.15;9.48;;;;;;;;;;4988728;28;20014;-84
2021/04/28 08:33:37;;;;;;;22.50;10.10;;;;;;;;;;4993509;28;20043;-85
2021/04/28 08:36:03;;;;;;;17.83;10.63;;;;;;;;;;4996596;28;20015;-85
2021/04/28 08:38:28;;;;;;;14.13;9.93;;;;;;;;;;4994647;28;20429;-84
2021/04/28 08:40:53;;;;;;;17.20;10.00;;;;;;;;;;4979421;28;20386;-85
2021/04/28 08:43:22;;;;;;;17.30;11.20;;;;;;;;;;4985425;28;20019;-84
2021/04/28 08:45:47;;;;;;;18.95;9.50;;;;;;;;;;4983005;28;20050;-84
2021/04/28 08:48:13;;;;;;;16.40;10.43;;;;;;;;;;4996513;28;20029;-85
2021/04/28 08:50:38;;;;;;;18.03;12.03;;;;;;;;;;4976514;28;20034;-83
2021/04/28 08:53:03;;;;;;;27.58;10.07;;;;;;;;;;4978131;28;20298;-83
2021/04/28 08:55:28;;;;;;;15.57;10.30;;;;;;;;;;4991277;28;20015;-83
2021/04/28 08:57:53;;;;;;;19.58;9.90;;;;;;;;;;4998152;28;20022;-84
2021/04/28 09:00:19;;;;;;;16.83;11.70;;;;;;;;;;4984190;28;20030;-83
2021/04/28 09:02:50;;;;;;;21.52;10.90;;;;;;;;;;4985748;28;20051;-83
2021/04/28 09:05:15;;;;;;;20.00;12.20;;;;;;;;;;4986422;28;20385;-83
2021/04/28 09:07:41;;;;;;;19.55;12.45;;;;;;;;;;4977215;28;20031;-83
2021/04/28 09:10:07;;;;;;;17.40;11.27;;;;;;;;;;4980779;28;20027;-85
2021/04/28 09:12:33;;;;;;;20.38;10.65;;;;;;;;;;4985082;28;20050;-83
2021/04/28 09:14:58;;;;;;;20.27;11.38;;;;;;;;;;5000986;28;20067;-83
2021/04/28 09:17:23;;;;;;;13.43;9.52;;;;;;;;;;4980195;28;20093;-83
2021/04/28 09:19:54;;;;;;;15.30;10.00;;;;;;;;;;4986208;28;20027;-85
2021/04/28 09:22:22;;;;;;;17.67;10.55;;;;;;;;;;4985249;28;20028;-83
2021/04/28 09:24:51;;;;;;;18.15;10.18;;;;;;;;;;4988671;28;20015;-85
2021/04/28 09:27:36;;;;;;;15.23;10.70;;;;;;;;;;4988952;28;20446;-83
2021/04/28 09:30:03;;;;;;;16.42;10.40;;;;;;;;;;4981901;28;20459;-83
2021/04/28 09:32:38;;;;;;;18.40;9.70;;;;;;;;;;4974180;28;20041;-84
2021/04/28 09:35:17;;;;;;;17.02;10.27;;;;;;;;;;4969172;28;20069;-85
2021/04/28 09:37:49;;;;;;;15.90;9.55;;;;;;;;;;4984880;28;20034;-84
2021/04/28 09:40:14;;;;;;;17.77;9.95;;;;;;;;;;4983604;28;20121;-84
2021/04/28 09:42:50;;;;;;;24.50;11.30;;;;;;;;;;4984700;28;20057;-83
2021/04/28 09:45:15;;;;;;;15.77;10.55;;;;;;;;;;4995173;28;20047;-85
2021/04/28 09:47:40;;;;;;;26.13;12.00;;;;;;;;;;4976181;28;20038;-84
2021/04/28 09:50:06;;;;;;;15.93;10.30;;;;;;;;;;4984707;28;20039;-83
2021/04/28 09:52:34;;;;;;;20.75;12.73;;;;;;;;;;4990859;28;20089;-82
2021/04/28 09:55:06;;;;;;;18.38;10.77;;;;;;;;;;4999146;28;20037;-82
2021/04/28 09:57:36;;;;;;;18.45;11.52;;;;;;;;;;4988815;28;20022;-81
2021/04/28 10:00:03;;;;;;;21.85;12.20;;;;;;;;;;4985660;28;20030;-81
2021/04/28 10:02:29;;;;;;;20.15;11.52;;;;;;;;;;4980342;28;20320;-84
2021/04/28 10:05:14;;;;;;;12.85;8.98;;;;;;;;;;4977031;28;20038;-84
2021/04/28 10:07:39;;;;;;;16.42;10.25;;;;;;;;;;4992481;28;20586;-83
2021/04/28 10:10:05;;;;;;;14.57;9.90;;;;;;;;;;4988001;28;20041;-84
2021/04/28 10:12:30;;;;;;;21.58;10.48;;;;;;;;;;4980643;28;20378;-84
2021/04/28 10:14:55;;;;;;;19.33;10.50;;;;;;;;;;4977591;28;20023;-85
2021/04/28 10:17:20;;;;;;;14.60;10.23;;;;;;;;;;4992604;28;20117;-84
2021/04/28 10:19:47;;;;;;;17.00;10.65;;;;;;;;;;4994942;28;20588;-84
2021/04/28 10:22:15;;;;;;;13.68;8.05;;;;;;;;;;4986560;28;20038;-83
2021/04/28 10:24:41;;;;;;;18.77;10.35;;;;;;;;;;4978151;28;20031;-84
2021/04/28 10:27:12;;;;;;;13.88;9.13;;;;;;;;;;4983218;28;20018;-84
2021/04/28 10:29:38;;;;;;;11.30;7.18;;;;;;;;;;4980345;28;20039;-84
2021/04/28 10:32:07;;;;;;;13.40;9.15;;;;;;;;;;4976486;28;20038;-83
2021/04/28 10:34:36;;;;;;;13.63;8.05;;;;;;;;;;4984493;28;20038;-84
2021/04/28 10:37:04;;;;;;;14.15;8.60;;;;;;;;;;4976160;28;20050;-82
2021/04/28 10:39:30;;;;;;;15.43;7.30;;;;;;;;;;4986784;28;20062;-85
2021/04/28 10:41:56;;;;;;;13.10;9.70;;;;;;;;;;4976188;28;20054;-82
2021/04/28 10:44:31;;;;;;;14.40;7.15;;;;;;;;;;4963379;28;550300;-82
2021/04/28 10:47:11;;;;;;;16.73;10.02;;;;;;;;;;4978066;28;20034;-85
2021/04/28 10:49:56;;;;;;;16.48;9.15;;;;;;;;;;4981594;28;20030;-83
2021/04/28 10:52:26;;;;;;;11.85;7.32;;;;;;;;;;4981770;28;20502;-84
2021/04/28 10:54:51;;;;;;;14.00;8.88;;;;;;;;;;4998700;28;20105;-83
2021/04/28 10:57:31;;;;;;;11.60;7.35;;;;;;;;;;4991962;28;20490;-84
2021/04/28 10:59:57;;;;;;;13.85;8.13;;;;;;;;;;4995104;28;20394;-85
2021/04/28 11:02:28;;;;;;;20.35;9.65;;;;;;;;;;4990926;28;20029;-82
2021/04/28 11:05:04;;;;;;;12.32;7.32;;;;;;;;;;4978017;28;20034;-84
2021/04/28 11:07:42;;;;;;;11.95;7.32;;;;;;;;;;4980901;28;20034;-83
2021/04/28 11:10:23;;;;;;;12.77;7.10;;;;;;;;;;4982539;28;20033;-84
2021/04/28 11:13:04;;;;;;;13.20;9.13;;;;;;;;;;4980781;28;20093;-87
2021/04/28 11:15:43;;;;;;;13.95;7.45;;;;;;;;;;4977629;28;20025;-86
2021/04/28 11:18:27;;;;;;;15.25;7.53;;;;;;;;;;4992390;28;20490;-87
2021/04/28 11:21:28;;;;;;;15.70;9.48;;;;;;;;;;5002738;28;20030;-82
2021/04/28 11:24:09;;;;;;;14.68;8.23;;;;;;;;;;4927693;29;20064;-85
2021/04/28 11:26:35;;;;;;;14.02;6.93;;;;;;;;;;4900372;29;20084;-85
2021/04/28 11:29:01;;;;;;;10.98;6.80;;;;;;;;;;4913838;29;20603;-86
2021/04/28 11:31:39;;;;;;;13.02;7.88;;;;;;;;;;4900861;29;20076;-83
2021/04/28 11:34:16;;;;;;;12.13;8.50;;;;;;;;;;4907503;29;20025;-85
2021/04/28 11:36:48;;;;;;;16.50;8.48;;;;;;;;;;4904542;29;20139;-84
2021/04/28 11:39:31;;;;;;;13.45;7.00;;;;;;;;;;4903982;29;20032;-81
2021/04/28 11:42:03;;;;;;;12.55;7.03;;;;;;;;;;4899357;29;20055;-85
2021/04/28 11:44:28;;;;;;;15.55;7.45;;;;;;;;;;4896989;29;20183;-85
2021/04/28 11:46:53;;;;;;;11.93;7.93;;;;;;;;;;4895990;29;20079;-85
2021/04/28 11:49:19;;;;;;;15.15;8.13;;;;;;;;;;4896166;29;20304;-85
2021/04/28 11:51:44;;;;;;;12.85;7.45;;;;;;;;;;4902131;29;20512;-84
2021/04/28 11:54:10;;;;;;;10.47;7.63;;;;;;;;;;4899214;29;20527;-87
2021/04/28 11:56:38;;;;;;;15.95;7.78;;;;;;;;;;4907746;29;20281;-86
2021/04/28 11:59:05;;;;;;;10.70;6.75;;;;;;;;;;4987135;28;20026;-84
2021/04/28 12:01:31;;;;;;;16.80;8.50;;;;;;;;;;4981764;28;20034;-81
2021/04/28 12:04:01;;;;;;;13.63;7.30;;;;;;;;;;4976170;28;20023;-84
2021/04/28 12:06:26;;;;;;;;;;;;;;;;;;4987359;28;20037;-84
2021/04/28 12:09:10;;;;;;;12.30;7.53;;;;;;;;;;4979258;28;20008;-86
2021/04/28 12:11:36;;;;;;;12.68;7.38;;;;;;;;;;4985518;28;20298;-87
2021/04/28 12:14:01;;;;;;;12.60;8.00;;;;;;;;;;4984497;28;20026;-86
2021/04/28 12:16:26;;;;;;;13.38;8.05;;;;;;;;;;4992210;28;20031;-88
2021/04/28 12:19:05;;;;;;;12.80;8.38;;;;;;;;;;4998595;28;20045;-87
2021/04/28 12:21:30;;;;;;;13.65;7.38;;;;;;;;;;4991825;28;20026;-82
2021/04/28 12:23:59;;;;;;;18.48;8.57;;;;;;;;;;4999504;28;20054;-83
2021/04/28 12:26:24;;;;;;;14.68;9.00;;;;;;;;;;4997634;28;20022;-80
2021/04/28 12:28:50;;;;;;;11.73;6.90;;;;;;;;;;4998195;28;20110;-81
2021/04/28 12:31:15;;;;;;;13.27;9.05;;;;;;;;;;4992887;28;20445;-83
2021/04/28 12:33:41;;;;;;;14.23;8.40;;;;;;;;;;4982559;28;20035;-84
2021/04/28 12:36:06;;;;;;;14.25;8.32;;;;;;;;;;4980603;28;20045;-76
2021/04/28 12:38:31;;;;;;;15.65;7.85;;;;;;;;;;4981222;28;20022;-78
2021/04/28 12:41:05;;;;;;;13.20;7.87;;;;;;;;;;4975926;28;20364;-78
2021/04/28 12:43:33;;;;;;;21.33;8.27;;;;;;;;;;4974918;28;20274;-77
2021/04/28 12:46:01;;;;;;;14.93;7.40;;;;;;;;;;4977945;28;20054;-80
2021/04/28 12:48:26;;;;;;;14.95;8.20;;;;;;;;;;4982817;28;20553;-82
2021/04/28 12:50:51;;;;;;;16.85;9.45;;;;;;;;;;4986638;28;20102;-82
2021/04/28 12:53:20;;;;;;;16.38;9.85;;;;;;;;;;4977894;28;20027;-81
2021/04/28 12:55:47;;;;;;;15.43;8.75;;;;;;;;;;4978750;28;20101;-84
2021/04/28 12:58:13;;;;;;;16.38;10.52;;;;;;;;;;4984471;28;20147;-79
2021/04/28 13:00:48;;;;;;;15.63;8.00;;;;;;;;;;4981989;28;20026;-80
2021/04/28 13:03:22;;;;;;;15.15;9.18;;;;;;;;;;4984601;28;20026;-81
2021/04/28 13:06:01;;;;;;;15.45;8.68;;;;;;;;;;4990237;28;20054;-80
2021/04/28 13:08:32;;;;;;;17.10;7.50;;;;;;;;;;4982677;28;20467;-84
2021/04/28 13:11:00;;;;;;;15.52;8.63;;;;;;;;;;4969602;28;20270;-81
2021/04/28 13:13:32;;;;;;;19.27;8.25;;;;;;;;;;4970229;28;20585;-83
2021/04/28 13:15:58;;;;;;;13.05;7.97;;;;;;;;;;4988795;28;20022;-89
2021/04/28 13:18:23;;;;;;;15.43;8.38;;;;;;;;;;4986381;28;20544;-79
2021/04/28 13:20:48;;;;;;;16.10;8.23;;;;;;;;;;4972082;28;20097;-82
2021/04/28 13:23:15;;;;;;;13.53;9.00;;;;;;;;;;4960660;28;20421;-80
2021/04/28 13:25:49;;;;;;;16.73;9.43;;;;;;;;;;4963821;28;20284;-80
2021/04/28 13:28:35;;;;;;;18.63;8.77;;;;;;;;;;4968129;28;20374;-83
2021/04/28 13:31:33;;;;;;;20.55;8.57;;;;;;;;;;4973055;28;20065;-79
2021/04/28 13:33:59;;;;;;;17.60;8.25;;;;;;;;;;4923008;29;20156;-80
2021/04/28 13:36:26;;;;;;;16.33;9.93;;;;;;;;;;4913853;29;20091;-78
2021/04/28 13:38:52;;;;;;;16.40;8.10;;;;;;;;;;4914018;29;20106;-79
2021/04/28 13:41:18;;;;;;;15.18;8.60;;;;;;;;;;4913844;29;20030;-80
2021/04/28 13:43:44;;;;;;;15.90;8.45;;;;;;;;;;4905201;29;20395;-78
2021/04/28 13:46:09;;;;;;;17.48;9.25;;;;;;;;;;4909831;29;20127;-80
2021/04/28 13:48:34;;;;;;;15.73;8.45;;;;;;;;;;4894456;29;20024;-79
2021/04/28 13:50:59;;;;;;;14.73;8.23;;;;;;;;;;4915538;29;20032;-79
2021/04/28 13:53:24;;;;;;;16.03;8.30;;;;;;;;;;4913581;29;20063;-79
2021/04/28 13:55:51;;;;;;;18.23;11.00;;;;;;;;;;4914440;29;20311;-79
2021/04/28 13:58:16;;;;;;;17.58;9.32;;;;;;;;;;4912475;29;20060;-79
2021/04/28 14:00:42;;;;;;;14.25;8.13;;;;;;;;;;4910957;29;20067;-76
2021/04/28 14:03:07;;;;;;;19.23;11.13;;;;;;;;;;4910617;29;20276;-79
2021/04/28 14:05:32;;;;;;;17.10;9.87;;;;;;;;;;4906880;29;20040;-79
2021/04/28 14:07:57;;;;;;;20.77;9.47;;;;;;;;;;4895165;29;20280;-78
2021/04/28 14:10:22;;;;;;;18.08;8.48;;;;;;;;;;4977036;28;20444;-78
2021/04/28 14:12:47;;;;;;;21.07;10.13;;;;;;;;;;4980629;28;20121;-78
2021/04/28 14:15:13;;;;;;;15.07;8.20;;;;;;;;;;4978690;28;20309;-78
2021/04/28 14:17:38;;;;;;;15.50;8.63;;;;;;;;;;4989287;28;20026;-77
2021/04/28 14:20:04;;;;;;;16.35;9.18;;;;;;;;;;4983278;28;20049;-79
2021/04/28 14:22:29;;;;;;;15.77;8.30;;;;;;;;;;4978737;28;20023;-78
2021/04/28 14:24:54;;;;;;;15.77;8.40;;;;;;;;;;4986406;28;20050;-78
2021/04/28 14:27:20;;;;;;;13.80;9.13;;;;;;;;;;4992820;28;20082;-77